Portada
METAR-TAF:

METAR-TAF

Aeroports :

University-Oxford_Airport

Oxford, Mississipí, Estats Units d'Amèrica

latitud: 34-23-04N, longitud: 089-32-08W, altitud: 138 m

Observació

L'informe es va fer fa 22 minuts, a les 11:55 UTC
Vent 4 kt del Nord/Nord-Est
Temperatura 15°C
Humitat 100%
Pressió 1021 hPa
Visibilitat: 14.5 km
Cel clar

METAR: KUOX 301155Z AUTO 02004KT 9SM CLR 15/15 A3015 RMK AO2

Hora: 07:17 (12:17 UTC)


TAF: manca

Observacions i pronòstics meteorològics de més de 4000 aeroports (METAR i TAF).

Les estacions disponibles són els punts grocs i vermells al mapa.

Posi el ratolí al punt desitjat per veure el nom de l'estació.

Feu clic per veure les observacions i els pronòstics meteorològics.

Per canviar el mapa: feu clic els botons verds amb una creu de color negre per apropar; al botó verd amb un guió per allunyar la imatge; o en les fletxes verdes per a mapes adjacents.


METAR-TAF: